Current Weather

Burlington Municipal Arpt

Burlington Municipal Arpt, Wisconsin (KBUU)

Report from: Monday, May 23, 2022 3:15 AM CDT
Current time: Monday, May 23, 2022 3:42 AM CDT

Nearby weather
Weather history
Weather forecast

Temperature4.2°C (39.6°F)
Dew point3.2°C (37.8°F)
Winds Calm
Visibility10 mi. (16.1 km)
Altimeter30.38 in.Hg (1029 mB)
Relative humidity93 %
Density altitude-1,721 ft. (-525 m)
Remarks Fully automated report
Automated weather observing station with precipitation discriminator
Present weather sensor not operating
Flight conditions Visual Meteorological Conditions
Raw dataKBUU 230815Z AUTO 00000KT 10SM 04/03 A3038 RMK AO2 T00420032 PWINO
An error has occurred. This application may no longer respond until reloaded. Reload 🗙